Portada
METAR-TAF:

METAR-TAF

Aeropuertos :

Helipuerto de Algeciras

Algeciras, España

latitud: 36-07-44N, longitud: 05-26-28W, altitud: 30 m

Observación

El informe se hizo hace 12 minutos, a las 01:30 UTC
Viento 3 kt con dirección variable
Temperatura 17°C
Humedad 77%
Presión 1015 hPa
Visibilidad 10 km o más
Nubes dispersas a una altura de 800 ft

METAR: LEAG 230130Z AUTO VRB03KT 9999 SCT008 17/13 Q1015

Hora: 03:42 (01:42 UTC)


TAF: falta

Observaciones y pronósticos meteorológicos de más de 4000 aeropuertos (mensajes METAR y TAF).

Los puntos amarillos y rojos representan las estaciones disponibles.

Ponga el ratón en el punto deseado para ver el nombre de la estación.

Haga clic para ver las observaciones y los pronósticos meteorológicos.

Para cambiar el mapa : haga clic en los botones verdes con una cruz de color negro para hacer un zoom, en el botón verde con un guión para alejar o en las flechas verdes para mapas adyacentes.


METAR-TAF: